Gustav Ibrahimovic

Chefscout - Djurgarden
23 Apr 2028
Sonntag
Verarbeitung

Persönlichkeit

Anpassungsfähigkeit (15) Ehrgeiz (8) Kontroverse (18) Loyalität (12) Druck (5) Professionalität (8) Fairness (12) Temperament (2)

Profil

Trainerstil Demokratisch
Lizenz Kontinentale B
Entschlossenheit 4
Menschenführung 13
Motivation 7
Disziplin 9
Arbeitszufriedenheit
100%
Ermüdung
0%
Rolle Chefscout
Gehalt 68.0K p/W
Vertrag 14.03.2030

Leistung

Verhalten Gut
Trainingseffektivität
51%
Spielerentwicklung
55%
Verletzungsprävention
60%
Taktische Umsetzung
60%

Letzte Ereignisse

Nahm an einer Scouting-Besprechung teil jetzt
Empfahl ein Transferziel jetzt
Empfahl ein Transferziel jetzt
Empfahl ein Transferziel jetzt
Empfahl ein Transferziel jetzt
Empfahl ein Transferziel 7T her
Empfahl ein Transferziel 7T her
Empfahl ein Transferziel 7T her

Aktuell beobachtet

269
Spieler Verein Status Fähigkeit Vertrauen Beobachtet Zuletzt beobachtet Letzte Stimme
Dmitry Pestryakov Krasnodar Verloren 117 / 123 40% 2 27.03.2028 -
Giovanni Leoni Lincoln City Aktiv 134 / 147 40% 2 27.03.2028 -
Daniel Banjaqui Benfica Aktiv 113 / 136 40% 3 27.03.2028 Mehr Infos nötig
Ludvig Arvidsson Halmstad Aktiv 92 / 108 69% 1 06.03.2028 Befürworten
Josh Acheampong Everton Aktiv 145 / 154 40% 1 06.03.2028 -
Christos Mouzakitis Hull City Aktiv 145 / 136 40% 1 06.03.2028 -
Bennet Mokoena Ajax Cape Town Aktiv 99 / 114 40% 1 06.03.2028 -
Jon Esenga IF Elfsborg Aktiv 86 / 106 40% 2 16.02.2028 -
Matias Siltanen Malmo FF Aktiv 132 / 138 40% 1 16.02.2028 -
Trey Nyoni Rotherham United Aktiv 129 / 152 40% 1 16.02.2028 -
Bitello Universidad de Chile Verhandlung 135 / 135 68% 1 01.02.2028 Befürworten
Martin Cedidla Club Brugge Verhandlung 131 / 132 66% 1 01.02.2028 Befürworten
Sampson Dweh Mallorca Aktiv 133 / 134 66% 1 01.02.2028 Befürworten
Montader Madjed Hammarby Verloren 125 / 128 69% 1 01.02.2028 -
Josh King Newcastle United Aktiv 144 / 153 40% 4 15.01.2028 -
Honest Ahanor Atalanta Aktiv 133 / 142 40% 3 15.01.2028 Beobachten
Archie Gray Southampton Aktiv 155 / 155 40% 3 15.01.2028 -
Lucas Bergvall Tottenham Aktiv 153 / 157 40% 3 14.01.2028 -
Jorge Moreno Athletic Bilbao Aktiv 114 / 126 40% 1 14.01.2028 -
Zane Albarus Shrewsbury Town Aktiv 91 / 113 40% 3 11.01.2028 -
Sebastián Ramírez Aguilas Doradas Aktiv 101 / 106 40% 1 11.01.2028 -
Martim Cunha Porto Aktiv 115 / 107 40% 1 10.01.2028 -
Ayden Heaven Portsmouth Aktiv 151 / 158 40% 1 10.01.2028 -
Tyler Fletcher Rotherham United Aktiv 119 / 126 40% 1 09.01.2028 -
Victor Hernandez Santa Fe Aktiv 127 / 120 40% 10 07.01.2028 -
Colin Guske Orlando City Aktiv 102 / 95 40% 2 07.01.2028 -
Noel Sernelius IFK Norrkoping Aktiv 96 / 119 40% 1 07.01.2028 -
Esquerdinha Notts County Aktiv 115 / 132 40% 2 06.01.2028 -
Björn Hedlöf Helsingborg Aktiv 88 / 110 40% 2 06.01.2028 -
Chris Rigg Sunderland Aktiv 138 / 134 40% 1 05.01.2028 -
Melvin Vučenović Persson Atvidaberg Aktiv 76 / 90 40% 4 04.01.2028 -
Bautista Carboni Defensores Unidos Aktiv 117 / 122 40% 7 30.12.2027 -
Joel Ezra Enyimba Aktiv 95 / 99 40% 5 30.12.2027 -
Ruben Ramos LA Galaxy Aktiv 110 / 110 40% 8 28.12.2027 -
Valentino Acuña Newell's Old Boys Aktiv 119 / 114 40% 4 28.12.2027 -
Jayden Danns Bradford City Aktiv 129 / 137 40% 1 26.12.2027 -
David Eke Enyimba Aktiv 94 / 93 40% 1 26.12.2027 -
Emmanuel Ndubueze Shooting Stars Aktiv 80 / 85 40% 3 24.12.2027 -
Ibrahim Fullah Charlton Athletic Aktiv 126 / 126 40% 2 24.12.2027 -
Matías Arias Vélez Aktiv 121 / 122 40% 3 23.12.2027 -
Oscar Steinke Brånby Hammarby Aktiv 110 / 107 40% 1 23.12.2027 -
Albert Aleksanjan IFK Norrkoping Aktiv 102 / 98 40% 7 21.12.2027 -
Flávio Gonçalves Sporting CP Aktiv 119 / 138 40% 2 21.12.2027 -
Mateo Silvetti Seattle Sounders Aktiv 122 / 119 40% 4 19.12.2027 -
Luca Meirelles Kudrivka Aktiv 118 / 125 40% 2 19.12.2027 -
Idris Ajiya Nasarawa United Aktiv 84 / 84 40% 5 17.12.2027 -
Jeremías Merlo Gimnasia La Plata Aktiv 122 / 128 40% 3 17.12.2027 -
Pedro Baltika Aktiv 139 / 144 40% 1 17.12.2027 -
Rafael Moreno Atletico Venezuela Aktiv 100 / 112 40% 6 16.12.2027 -
Giovanni Baroni Talleres Aktiv 118 / 112 40% 3 16.12.2027 -
Christ Wawa Gefle Aktiv 110 / 98 40% 3 16.12.2027 -
Agustín De la Cuesta Racing Aktiv 106 / 120 40% 9 14.12.2027 -
Alex Verón Vélez Aktiv 114 / 134 40% 3 14.12.2027 -
Ryan McAidoo Oldham Athletic Aktiv 121 / 135 40% 1 13.12.2027 -
Rio Ngumoha Plymouth Argyle Aktiv 130 / 150 40% 1 13.12.2027 -
Luka Andrade Montevideo City Torque Aktiv 90 / 116 40% 10 11.12.2027 -
Alex Amaefula Kun Khalifat Aktiv 77 / 76 40% 3 11.12.2027 -
Nupe Godstime Bayelsa United Aktiv 77 / 100 40% 6 10.12.2027 -
Dylan Cabral Arsenal Aktiv 90 / 98 40% 8 09.12.2027 -
Abdulrahman Hamisu Niger Tornadoes Aktiv 97 / 85 40% 4 04.12.2027 -
Kaique Kenji Fortaleza Aktiv 112 / 111 40% 6 04.12.2027 -
Chimobi Igwilo Rangers International Aktiv 88 / 92 40% 7 02.12.2027 -
Francisco Triver River Plate Aktiv 85 / 94 40% 3 01.12.2027 -
Mateo Peralta Danubio Aktiv 108 / 108 40% 3 29.11.2027 -
Keyano Marrah Hammarby Aktiv 95 / 102 40% 2 24.11.2027 -
Mustapha Umar Kano Pillars Aktiv 91 / 92 40% 6 22.11.2027 -
Imran Musa Atvidaberg Aktiv 93 / 92 40% 1 20.11.2027 -
Maren Kefas Plateau United Aktiv 82 / 103 40% 4 18.11.2027 -
Joseph Abah Remo Stars Aktiv 80 / 89 40% 1 18.11.2027 -
Nicolás Barros Schelotto Gimnasia La Plata Aktiv 130 / 137 40% 5 16.11.2027 -
Adrian Skogmar Malmo FF Aktiv 108 / 117 40% 7 13.11.2027 -
Rasmus Nehrman Gefle Aktiv 80 / 86 40% 1 07.11.2027 -
Ben Gannon Doak Charlton Athletic Aktiv 139 / 141 40% 2 30.10.2027 -
Joel Orlando Almagro Aktiv 107 / 125 40% 5 19.10.2027 -
Tiago Pucciarelli IF Elfsborg Aktiv 97 / 111 40% 2 19.10.2027 -
Abubakar Garba Nasarawa United Aktiv 97 / 98 40% 6 17.10.2027 -
Juan Rodríguez Cerro Largo Aktiv 85 / 103 40% 2 15.10.2027 -
Lucas Duré Montevideo City Torque Aktiv 95 / 116 40% 1 13.10.2027 -
Léo Llaneros Aktiv 83 / 92 40% 1 13.10.2027 -
Hassan Beja AFC Leopards Aktiv 99 / 92 40% 3 10.10.2027 -
Wisdom Udom Bendel Insurance Aktiv 78 / 94 40% 4 07.10.2027 -
Didier Dawson Envigado Aktiv 97 / 111 40% 1 01.10.2027 -
Abdoulaye Allamine Stars Jeunes Talents Aktiv 69 / 82 40% 1 16.08.2027 -
Pedro de la Vega Columbus Crew Aktiv 133 / 134 66% 1 16.07.2027 Befürworten
Leo Castledine Middlesbrough Aktiv 134 / 131 40% 4 15.07.2027 -
Caleb Yirenkyi Coventry City Aktiv 134 / 135 40% 9 15.07.2027 -
Calum Agius Crewe Alexandra Aktiv 96 / 91 40% 3 15.07.2027 -
Assane Diao Como Aktiv 150 / 154 40% 11 13.07.2027 -
Daniel Awuni Aduana Stars Aktiv 96 / 84 40% 6 13.07.2027 -
Riley Owen Stevenage Aktiv 113 / 106 40% 3 08.07.2027 -
Charlie Gray Fleetwood Town Aktiv 91 / 104 40% 6 08.07.2027 -
Ishmael Addo Heart of Lions Aktiv 90 / 95 40% 2 08.07.2027 -
Othmane Maamma Watford Aktiv 137 / 132 40% 4 07.07.2027 -
Elijas Gunnergård Ortan Ahrobiznes Aktiv 82 / 94 40% 5 06.07.2027 -
Mohamadou Kanté Crawley Town Aktiv 118 / 125 40% 2 06.07.2027 -
João Abreu Porto Aktiv 102 / 113 40% 3 05.07.2027 -
Jan Bürger Northampton Town Aktiv 114 / 130 40% 4 01.07.2027 -
Nana Nuhu WAFA Aktiv 95 / 86 40% 4 01.07.2027 -
Jesús Rodríguez Como Aktiv 147 / 152 40% 3 28.06.2027 -
Stevan Manuel Benfica Aktiv 92 / 103 40% 1 28.06.2027 -
Germán Barbas Burgos Aktiv 104 / 119 40% 5 27.06.2027 -
Bazoumana Touré Newcastle United Aktiv 149 / 155 40% 3 23.06.2027 -
Ethan Williams Peterborough United Aktiv 123 / 117 40% 1 23.06.2027 -
Bongani Jali Free State Stars Aktiv 97 / 118 40% 4 22.06.2027 -
Sindre Walle Egeli Udinese Aktiv 136 / 126 40% 2 13.06.2027 -
Araphat Mohammed Ashanti Gold Aktiv 112 / 102 40% 3 11.06.2027 -
Luke Baartman Ajax Cape Town Aktiv 101 / 98 40% 1 11.06.2027 -
Lander Astiazarán Real Sociedad Aktiv 104 / 118 40% 3 10.06.2027 -
Gladson Adjei WAFA Aktiv 72 / 80 40% 1 09.06.2027 -
Romelle Donovan Brentford Aktiv 135 / 137 40% 6 08.06.2027 -
Rhys Walters Port Vale Aktiv 96 / 116 40% 1 07.06.2027 -
Tiago Freitas Benfica Aktiv 101 / 124 40% 1 03.06.2027 -
Gabriele Bertolini Vicenza Aktiv 101 / 110 40% 1 03.06.2027 -
Asanele Bonani Chippa United Aktiv 99 / 84 40% 1 03.06.2027 -
Víctor Guzmán Sporting CP Aktiv 97 / 110 40% 1 01.06.2027 -
Edwin Asamoah Berekum Chelsea Aktiv 75 / 97 40% 2 30.05.2027 -
Williams Wonah AS Police Aktiv 78 / 70 40% 1 26.05.2027 -
Kirill Glebov CSKA Moscow Aktiv 131 / 121 40% 1 24.05.2027 -
Nestory Irankunda Watford Aktiv 127 / 133 40% 1 13.05.2027 -
André Miranda Porto Aktiv 91 / 100 40% 1 13.05.2027 -
Alphadjo Cissé Lecce Aktiv 129 / 137 40% 1 12.05.2027 -
Oscar Schwartau Norwich City Aktiv 111 / 128 40% 1 06.05.2027 -
Alen Zahirović Gefle Aktiv 78 / 81 30% 1 / 1m 05.05.2027 -
Salvador Blopá Sporting CP Aktiv 120 / 111 40% 1 04.05.2027 -
Hamse Shagaxle Angusht Aktiv 77 / 91 40% 1 04.05.2027 -
Jake Batty Plymouth Argyle Aktiv 109 / 119 40% 2 23.04.2027 -
Jenson Jones Walsall Aktiv 91 / 104 40% 2 23.04.2027 -
Mattia Puzone Siracusa Aktiv 101 / 112 40% 3 23.04.2027 -
Matvey Kislyak CSKA Moscow Aktiv 140 / 148 40% 4 21.04.2027 -
Bernardo Lima Porto Aktiv 86 / 96 40% 1 21.04.2027 -
Gonçalo Oliveira Benfica Aktiv 112 / 105 40% 2 20.04.2027 -
Pietro Reggiori Pro Patria Aktiv 84 / 109 40% 5 16.04.2027 -
Chari Giwa US Bougouni Aktiv 67 / 70 40% 1 16.04.2027 -
Samuele di Benedetto Twente Aktiv 107 / 110 40% 1 16.04.2027 -
Rivaldo Mkhize Black Aces Aktiv 89 / 75 40% 1 15.04.2027 -
Leandro Martins Benfica Aktiv 98 / 85 40% 1 15.04.2027 -
Tommaso Cecotti Carpi Aktiv 83 / 85 40% 1 12.04.2027 -
Ivan Giraldo Valencia Aktiv 109 / 126 40% 1 10.04.2027 -
Konta Ismaily Aktiv 92 / 91 40% 1 09.04.2027 -
Ahmed Zaki Masr El Makasa Aktiv 87 / 95 40% 1 09.04.2027 -
Afriyie Sulemana WAFA Aktiv 84 / 99 40% 1 05.04.2027 -
Kazunari Kita Real Sociedad Aktiv 99 / 108 40% 1 05.04.2027 -
David Ozoh Derby County Aktiv 119 / 120 40% 1 15.03.2027 -
Axel Frugone Athletic Bilbao Aktiv 113 / 119 40% 1 08.03.2027 -
Lwanda Mbanjwa Platinum Stars Aktiv 99 / 100 40% 1 22.02.2027 -
Mikel Gogorza Brondby Aktiv 118 / 118 40% 1 16.02.2027 -
Rocco Vata Watford Aktiv 113 / 111 40% 4 04.02.2027 -
Fletcher Holman Swindon Town Aktiv 77 / 100 40% 1 04.02.2027 -
Ethan Pye Stockport County Aktiv 123 / 125 40% 1 01.02.2027 -
Álex Centelles Levski Aktiv 129 / 132 40% 1 01.02.2027 -
Stav Toriel Hapoel Tel Aviv Aktiv 137 / 114 40% 2 31.01.2027 -
Isaiah Jones Luton Town Aktiv 116 / 134 40% 1 31.01.2027 -
Cian Ashford Cardiff City Aktiv 111 / 127 40% 1 31.01.2027 -
João Félix Dinamo Moscow Aktiv 156 / 155 40% 6 30.01.2027 -
Callum O'Hare Sheffield United Aktiv 130 / 140 40% 4 30.01.2027 -
Sam Greenwood Bristol City Aktiv 131 / 121 40% 5 30.01.2027 -
Bradley Zwane SuperSport United Aktiv 112 / 125 40% 3 29.01.2027 -
Joe Gelhardt Hull City Aktiv 128 / 126 40% 7 29.01.2027 -
Emmanuel Boateng Hapoel Tel Aviv Aktiv 128 / 132 40% 4 29.01.2027 -
Melker Widell Swansea City Aktiv 119 / 110 40% 1 29.01.2027 -
Anthony Patterson Wrexham Aktiv 142 / 142 40% 3 28.01.2027 Beobachten
Lukas Jensen Millwall Aktiv 114 / 130 40% 1 28.01.2027 -
Arthur Beroe Aktiv 115 / 114 40% 1 28.01.2027 -
Ivan Sergeev Dinamo Moscow Aktiv 131 / 120 40% 3 27.01.2027 -
Arthur Gomes Dinamo Moscow Aktiv 125 / 116 40% 1 23.01.2027 -
Ioannis Pittas CSKA Sofia Aktiv 125 / 123 40% 2 22.01.2027 -
Mohamed-Ali Cho Hull City Aktiv 139 / 146 40% 1 20.01.2027 -
Maduka Okoye Udinese Aktiv 141 / 137 40% 2 19.01.2027 -
Richard Ludha MFK Skalica Aktiv 109 / 106 40% 1 19.01.2027 -
Michael Cooper Sheffield United Aktiv 120 / 125 40% 1 19.01.2027 -
Edoardo Bove Watford Aktiv 132 / 137 40% 1 17.01.2027 -
Bongani Zungu Ajax Cape Town Aktiv 124 / 132 40% 5 16.01.2027 -
Derensili Sanches Fernandes Huddersfield Town Aktiv 121 / 117 40% 1 15.01.2027 -
Ali Ahmed Norwich City Aktiv 131 / 134 40% 1 13.01.2027 -
Jack McGlynn Stoke City Aktiv 119 / 145 40% 1 12.01.2027 -
Ilyas Ansah Hull City Aktiv 119 / 119 40% 3 09.01.2027 -
Oli McBurnie Hull City Aktiv 124 / 137 40% 3 08.01.2027 -
Tyrese Campbell Sheffield United Aktiv 131 / 116 40% 3 08.01.2027 -
Daniel Paraschiv Bnei Sakhnin Aktiv 129 / 108 40% 1 07.01.2027 -
Marcelo Allende Mamelodi Sundowns Aktiv 133 / 135 40% 2 02.01.2027 -
Harry Clarke Preston Aktiv 130 / 140 40% 1 02.01.2027 -
Patson Daka Leicester City Aktiv 127 / 119 40% 1 01.01.2027 -
Mathias Kvistgaarden Norwich City Aktiv 113 / 107 40% 1 01.01.2027 -
Habib Diarra Sunderland Aktiv 134 / 153 40% 1 31.12.2026 -
Armstrong Oko-Flex Levski Aktiv 118 / 127 40% 3 29.12.2026 -
Ammar Ramadan DAC Dunajska Streda Aktiv 119 / 132 40% 1 29.12.2026 -
Cho Gue-Sung FC Midtjylland Aktiv 122 / 136 40% 1 28.12.2026 -
Elijah Adebayo Luton Town Aktiv 112 / 127 40% 1 28.12.2026 -
Mustapha Sangaré Levski Aktiv 123 / 124 40% 2 27.12.2026 -
Zian Flemming Ipswich Town Aktiv 135 / 123 40% 3 27.12.2026 -
Cameron Archer Southampton Aktiv 132 / 113 40% 1 24.12.2026 -
Milan van Ewijk Coventry City Aktiv 128 / 119 40% 1 21.12.2026 -
Amar Memić Viktoria Plzen Aktiv 123 / 131 40% 2 20.12.2026 -
Reda Khadra Qarabag Aktiv 142 / 146 40% 3 20.12.2026 -
Che Adams Torino Aktiv 132 / 154 40% 2 16.12.2026 -
Murphy Cooper Plymouth Argyle Aktiv 106 / 111 40% 1 16.12.2026 -
János Uram Vasas Aktiv 99 / 95 40% 1 16.12.2026 -
Aune Heggebø West Bromwich Albion Aktiv 136 / 122 40% 2 14.12.2026 -
Tyrhys Dolan Espanyol Aktiv 141 / 136 40% 1 12.12.2026 -
Bobby Clark Derby County Aktiv 125 / 119 40% 1 12.12.2026 -
Kwadwo Duah Ludogorets Aktiv 122 / 121 40% 1 12.12.2026 -
Morgan Guilavogui Real Salt Lake Aktiv 124 / 128 40% 4 09.12.2026 -
Josh Keeley Luton Town Aktiv 123 / 116 40% 1 09.12.2026 -
Zach Hemming Chesterfield Aktiv 106 / 93 40% 1 09.12.2026 -
Kyle Wootton Stockport County Aktiv 110 / 131 40% 1 07.12.2026 -
Sota Kitano Red Bull Salzburg Aktiv 123 / 138 40% 2 06.12.2026 -
Assad Al Hamlawi Universitatea Craiova Aktiv 116 / 109 40% 3 05.12.2026 -
Wessam Abou Ali Columbus Crew Aktiv 140 / 146 40% 3 30.11.2026 -
Elmin Rastoder Panathinaikos Aktiv 123 / 125 40% 2 30.11.2026 -
Petter Nosa Dahl Rapid Wien Aktiv 117 / 137 40% 1 30.11.2026 -
Ola Brynhildsen Rapid Wien Aktiv 117 / 143 40% 2 29.11.2026 -
Ondřej Lingr Korona Aktiv 126 / 128 40% 2 28.11.2026 -
Max Fenger Helsingborg Aktiv 116 / 111 40% 8 28.11.2026 -
Petar Musa FC Dallas Aktiv 129 / 148 40% 4 23.11.2026 -
Luka Jović CFR Cluj Aktiv 129 / 129 40% 4 19.11.2026 -
Michele Šego Hajduk Split Aktiv 123 / 120 40% 1 18.11.2026 -
Germán Berterame Inter Miami CF Aktiv 143 / 135 40% 1 15.11.2026 -
Kévin Denkey FC Cincinnati Aktiv 119 / 112 40% 3 14.11.2026 -
Alexey Miranchuk Atlanta United FC Aktiv 152 / 149 40% 1 14.11.2026 -
Erik Botheim Viking Aktiv 134 / 130 40% 1 14.11.2026 -
Tadeo Allende Inter Miami CF Aktiv 118 / 119 40% 1 13.11.2026 -
Brian White Vancouver Whitecaps Aktiv 125 / 109 40% 2 12.11.2026 -
Vegard Erlien Tromso Aktiv 132 / 122 40% 2 07.11.2026 -
Yorbe Vertessen Red Bull Salzburg Aktiv 124 / 143 40% 1 05.11.2026 -
Talles Magno New York City Aktiv 129 / 142 40% 6 02.11.2026 -
Jesus Ferreira Seattle Sounders Aktiv 121 / 118 40% 2 02.11.2026 -
Daniel Kyerewaa Reading Aktiv 115 / 106 40% 1 02.11.2026 -
Bénie Traoré New York City Aktiv 123 / 119 40% 1 29.10.2026 -
Marcus Ingvartsen San Diego Football Club Aktiv 127 / 112 40% 1 27.10.2026 -
Paulos Abraham Hammarby Aktiv 127 / 119 40% 1 26.10.2026 -
Leonardo Campana New England Revolution Aktiv 120 / 116 40% 1 26.10.2026 -
Diego García Malmo FF Aktiv 112 / 124 40% 2 25.10.2026 -
John Mercado Sparta Prague Aktiv 131 / 119 40% 1 25.10.2026 -
Manfred Ugalde Spartak Moscow Aktiv 133 / 133 40% 1 25.10.2026 -
Alexander Aravena Portland Timbers Aktiv 118 / 121 40% 1 24.10.2026 -
Anderson Julio FC Dallas Aktiv 111 / 133 40% 1 19.10.2026 -
Mojmír Chytil Slavia Prague Aktiv 136 / 140 40% 2 18.10.2026 -
Matías Pellegrini Vélez Aktiv 129 / 104 40% 1 18.10.2026 -
Oswin Appollis Orlando Pirates Aktiv 131 / 109 40% 1 18.10.2026 -
João Klauss LA Galaxy Aktiv 135 / 112 40% 1 14.10.2026 -
Andrés Herrera Columbus Crew Aktiv 134 / 113 40% 1 14.10.2026 -
Cheikh Sabaly Vancouver Whitecaps Aktiv 117 / 137 40% 2 12.10.2026 -
Sead Hakšabanović Malmo FF Aktiv 126 / 108 40% 4 11.10.2026 -
Dejan Joveljić Seattle Sounders Aktiv 136 / 121 40% 2 11.10.2026 -
Martín Ojeda Orlando City Aktiv 132 / 119 40% 2 10.10.2026 -
Brandon Vázquez Austin FC Aktiv 122 / 130 40% 1 10.10.2026 -
Themba Williams Ajax Cape Town Aktiv 104 / 124 40% 1 09.10.2026 -
Dániel Gazdag New England Revolution Aktiv 131 / 115 40% 1 07.10.2026 -
Telasco Segovia Inter Miami CF Aktiv 142 / 118 40% 1 06.10.2026 -
Warren Kamanzi Malmo FF Aktiv 124 / 130 40% 2 05.10.2026 -
Santiago Rodríguez Columbus Crew Aktiv 120 / 140 40% 2 05.10.2026 -
Ramiro Ruiz Rodríguez Atlético Tucumán Aktiv 116 / 114 40% 2 29.09.2026 -
Andreas Helmersen Bodo/Glimt Aktiv 125 / 112 40% 1 29.09.2026 -
David Kruse IFK Goteborg Aktiv 121 / 106 40% 1 29.09.2026 -
Esequiel Barco Spartak Moscow Aktiv 135 / 146 40% 1 28.09.2026 -
Indiana Vassilev Philadelphia Union Aktiv 111 / 111 40% 1 27.09.2026 -
Hannes Wolf New York City Aktiv 137 / 124 40% 1 27.09.2026 -
Facundo Mura Inter Miami CF Aktiv 113 / 141 40% 1 25.09.2026 -
Victor Lind Hammarby Aktiv 121 / 132 40% 1 25.09.2026 -
Marcelo Torres Gimnasia La Plata Aktiv 112 / 103 40% 1 23.09.2026 -
Alonso Martínez New York City Aktiv 109 / 111 40% 1 16.09.2026 -
Mariano Bracamonte Deportivo Riestra Aktiv 121 / 107 40% 1 16.09.2026 -
Duncan McGuire Houston Dynamo Aktiv 126 / 133 40% 2 12.09.2026 -
Nardin Mulahusejnović Vojvodina Aktiv 128 / 115 40% 1 12.09.2026 -
Gonzalo Carneiro Sparta Prague Aktiv 113 / 110 40% 1 10.09.2026 -
Ole Sæter Valerenga Aktiv 125 / 129 40% 1 07.09.2026 -
Juan Manuel Martínez Trejo Atvidaberg Aktiv 104 / 104 30% 1 / 1m 12.08.2026 -
Aboubacar Keita Kalmar FF Aktiv 105 / 101 69% 1 10.08.2026 Befürworten
Tomáš Souček West Ham United Aktiv 134 / 136 40% 1 01.08.2026 -